Time;durP1;ratioP1;P1;durP2;ratioP2;P2;SDS_P1;SDS_P2;PMS_P1;PMS_P2;Temp;Humidity;BMP_temperature;BMP_pressure;BME280_temperature;BME280_humidity;BME280_pressure;Samples;Min_cycle;Max_cycle;Signal;HPM_P1;HPM_P2
2021/06/06 00:00:34;;;;;;;0.60;0.60;;;;;;;16.33;75.60;96982.03;5116652;28;20047;-74
2021/06/06 00:03:02;;;;;;;0.52;0.52;;;;;;;16.33;75.53;96976.72;5116548;28;20035;-74
2021/06/06 00:05:41;;;;;;;0.50;0.50;;;;;;;16.30;75.59;96975.38;5116794;28;20035;-74
2021/06/06 00:08:07;;;;;;;0.45;0.45;;;;;;;16.26;75.35;96976.91;5106135;28;20047;-74
2021/06/06 00:10:33;;;;;;;0.60;0.50;;;;;;;16.25;75.53;96983.22;5116279;28;20036;-74
2021/06/06 00:12:59;;;;;;;0.50;0.50;;;;;;;16.17;75.09;96981.00;5116227;28;20036;-74
2021/06/06 00:15:26;;;;;;;0.50;0.50;;;;;;;16.12;75.26;96976.41;5116163;28;20046;-74
2021/06/06 00:17:52;;;;;;;0.98;0.70;;;;;;;16.11;75.48;96968.72;5116410;28;20040;-74
2021/06/06 00:20:18;;;;;;;0.57;0.57;;;;;;;16.12;75.61;96973.75;5115435;28;20040;-74
2021/06/06 00:22:45;;;;;;;0.65;0.65;;;;;;;16.11;75.45;96972.16;5115698;28;20475;-74
2021/06/06 00:25:13;;;;;;;0.60;0.60;;;;;;;16.12;75.42;96975.59;5115542;28;20387;-74
2021/06/06 00:27:39;;;;;;;0.65;0.65;;;;;;;16.13;75.52;96967.44;5115916;28;20042;-74
2021/06/06 00:30:07;;;;;;;0.80;0.80;;;;;;;16.14;75.52;96963.72;5115731;28;20121;-74
2021/06/06 00:32:34;;;;;;;0.80;0.80;;;;;;;16.13;75.18;96967.44;5116172;28;20039;-74
2021/06/06 00:35:00;;;;;;;0.82;0.82;;;;;;;16.10;75.28;96980.34;5115687;28;20047;-74
2021/06/06 00:37:27;;;;;;;1.85;0.82;;;;;;;16.09;75.33;96968.97;5115738;28;20049;-74
2021/06/06 00:39:53;;;;;;;0.98;0.90;;;;;;;16.07;75.28;96970.25;5115732;28;20044;-74
2021/06/06 00:42:21;;;;;;;0.90;0.90;;;;;;;16.05;75.11;96980.25;5115598;28;20387;-74
2021/06/06 00:44:48;;;;;;;1.00;1.00;;;;;;;16.02;75.28;96973.59;5115515;28;20035;-74
2021/06/06 00:47:14;;;;;;;0.90;0.90;;;;;;;16.00;75.27;96971.19;5115446;28;20036;-74
2021/06/06 00:49:41;;;;;;;1.95;0.80;;;;;;;16.00;75.38;96973.03;5115452;28;20047;-74
2021/06/06 00:52:11;;;;;;;0.70;0.70;;;;;;;16.01;75.34;96969.34;5114514;28;20044;-74
2021/06/06 00:54:41;;;;;;;0.80;0.80;;;;;;;16.03;75.23;96967.25;5115684;28;20042;-74
2021/06/06 00:57:19;;;;;;;0.52;0.52;;;;;;;16.02;75.19;96965.66;5115124;28;20493;-74
2021/06/06 00:59:50;;;;;;;0.63;0.50;;;;;;;16.02;75.04;96977.06;5114925;28;20506;-73
2021/06/06 01:02:16;;;;;;;0.43;0.30;;;;;;;15.95;74.84;96971.09;5115292;28;20479;-74
2021/06/06 01:04:43;;;;;;;0.30;0.30;;;;;;;15.93;75.00;96975.81;5114956;28;20028;-74
2021/06/06 01:07:10;;;;;;;0.20;0.20;;;;;;;15.92;75.00;96968.16;5105107;28;20047;-74
2021/06/06 01:09:36;;;;;;;0.22;0.22;;;;;;;15.92;75.16;96968.16;5115057;28;20028;-73
2021/06/06 01:12:15;;;;;;;0.30;0.30;;;;;;;15.92;74.88;96973.44;5114475;28;20074;-73
2021/06/06 01:14:56;;;;;;;0.20;0.20;;;;;;;15.90;74.42;96963.09;5114670;28;20044;-74
2021/06/06 01:17:35;;;;;;;0.30;0.30;;;;;;;15.88;74.62;96964.38;5114897;28;20032;-74
2021/06/06 01:20:10;;;;;;;0.32;0.32;;;;;;;15.85;74.90;96963.00;5115200;27;20044;-74
2021/06/06 01:22:49;;;;;;;0.25;0.25;;;;;;;15.81;74.47;96964.50;5114801;28;20031;-74
2021/06/06 01:25:18;;;;;;;0.30;0.30;;;;;;;15.76;74.81;96952.00;5114800;27;20391;-74
2021/06/06 01:27:53;;;;;;;0.40;0.20;;;;;;;15.75;74.99;96958.34;5114842;28;20039;-74
2021/06/06 01:30:27;;;;;;;0.38;0.35;;;;;;;15.76;75.20;96959.94;5115331;28;20499;-74
2021/06/06 01:32:58;;;;;;;0.25;0.25;;;;;;;15.77;75.13;96956.25;5101606;28;20038;-74
2021/06/06 01:35:33;;;;;;;0.30;0.30;;;;;;;15.78;74.93;96949.91;5114302;28;20055;-74
2021/06/06 01:38:03;;;;;;;0.35;0.35;;;;;;;15.75;74.92;96955.69;5114534;28;20043;-74
2021/06/06 01:40:33;;;;;;;0.63;0.40;;;;;;;15.76;75.10;96951.22;5114667;28;20499;-76
2021/06/06 01:43:04;;;;;;;0.35;0.35;;;;;;;15.76;74.93;96948.56;5114335;28;20047;-76
2021/06/06 01:45:51;;;;;;;0.30;0.30;;;;;;;15.77;75.06;96950.97;5114723;28;20035;-73
2021/06/06 01:48:17;;;;;;;0.73;0.50;;;;;;;15.77;75.08;96950.97;5114183;28;20039;-73
2021/06/06 01:50:58;;;;;;;0.73;0.70;;;;;;;15.76;75.12;96941.44;5113954;28;20044;-73
2021/06/06 01:53:25;;;;;;;0.47;0.47;;;;;;;15.75;74.97;96945.13;5114046;28;20031;-73
2021/06/06 01:55:56;;;;;;;0.40;0.40;;;;;;;15.73;75.13;96947.19;5113961;28;20028;-74
2021/06/06 01:58:23;;;;;;;0.60;0.60;;;;;;;15.73;75.22;96949.06;5114165;27;20064;-73
2021/06/06 02:00:57;;;;;;;1.75;0.70;;;;;;;15.72;75.19;96940.28;5114059;28;20048;-73
2021/06/06 02:03:23;;;;;;;0.57;0.57;;;;;;;15.74;75.14;96942.72;5114210;28;20395;-73
2021/06/06 02:05:51;;;;;;;0.88;0.70;;;;;;;15.73;75.22;96938.47;5113584;28;20043;-73
2021/06/06 02:08:20;;;;;;;0.70;0.70;;;;;;;15.73;75.39;96938.47;5114030;28;20117;-74
2021/06/06 02:10:52;;;;;;;0.80;0.80;;;;;;;15.75;75.50;96939.03;5113836;28;20047;-73
2021/06/06 02:13:30;;;;;;;0.88;0.88;;;;;;;15.74;75.67;96938.22;5113073;28;20046;-73
2021/06/06 02:16:00;;;;;;;0.68;0.43;;;;;;;15.74;75.45;96937.41;5114423;28;20039;-74
2021/06/06 02:18:28;;;;;;;0.70;0.70;;;;;;;15.75;75.53;96934.53;5103105;28;20042;-73
2021/06/06 02:20:55;;;;;;;0.47;0.47;;;;;;;15.73;75.58;96933.19;5113851;28;20040;-73
2021/06/06 02:23:28;;;;;;;0.60;0.60;;;;;;;15.74;75.83;96932.13;5113279;28;20066;-73
2021/06/06 02:26:06;;;;;;;0.52;0.52;;;;;;;15.72;75.75;96928.91;5113594;28;20043;-73
2021/06/06 02:28:46;;;;;;;0.75;0.75;;;;;;;15.68;75.59;96936.50;5113864;28;20033;-74
2021/06/06 02:31:32;;;;;;;0.70;0.70;;;;;;;15.68;75.77;96931.19;5113864;28;20031;-73
2021/06/06 02:34:18;;;;;;;0.50;0.50;;;;;;;15.66;76.00;96933.28;5113548;28;20031;-73
2021/06/06 02:36:56;;;;;;;0.70;0.70;;;;;;;15.64;75.69;96932.72;5113339;28;20483;-74
2021/06/06 02:39:36;;;;;;;0.60;0.60;;;;;;;15.65;75.87;96934.34;5114094;28;20043;-76
2021/06/06 02:42:05;;;;;;;0.70;0.70;;;;;;;15.66;75.82;96941.22;5102926;28;20040;-76
2021/06/06 02:44:53;;;;;;;0.95;0.70;;;;;;;15.64;75.84;96935.34;5113303;28;20468;-76
2021/06/06 02:47:27;;;;;;;0.60;0.60;;;;;;;15.61;75.57;96934.00;5114373;28;20058;-76
2021/06/06 02:49:57;;;;;;;0.77;0.77;;;;;;;15.57;75.78;96932.88;5116585;28;20470;-76
2021/06/06 02:52:38;;;;;;;0.82;0.73;;;;;;;15.56;76.13;96922.53;5117749;28;20036;-76
2021/06/06 02:55:30;;;;;;;0.80;0.80;;;;;;;15.57;76.13;96926.78;5116746;28;20040;-76
2021/06/06 02:58:23;;;;;;;0.70;0.70;;;;;;;15.55;75.97;96924.38;5117618;28;20472;-76
2021/06/06 03:00:58;;;;;;;1.10;0.57;;;;;;;15.56;76.07;96926.00;5109131;28;20368;-76
2021/06/06 03:03:32;;;;;;;0.60;0.60;;;;;;;15.56;76.21;96918.06;5117792;28;20407;-76
2021/06/06 03:06:02;;;;;;;0.70;0.70;;;;;;;15.55;76.09;96920.94;5117385;28;20040;-76
2021/06/06 03:08:28;;;;;;;0.57;0.57;;;;;;;15.55;76.15;96920.94;5117365;28;20042;-76
2021/06/06 03:10:56;;;;;;;0.60;0.60;;;;;;;15.57;76.21;96917.00;5117586;28;20023;-76
2021/06/06 03:13:26;;;;;;;0.73;0.50;;;;;;;15.59;76.21;96927.34;5117125;28;20467;-76
2021/06/06 03:15:58;;;;;;;0.65;0.65;;;;;;;15.59;76.20;96922.84;5117396;27;20031;-76
2021/06/06 03:18:31;;;;;;;0.73;0.73;;;;;;;15.58;76.06;96921.28;5117396;28;20042;-76
2021/06/06 03:21:16;;;;;;;0.50;0.50;;;;;;;15.51;76.13;96917.97;5116536;28;20047;-76
2021/06/06 03:23:48;;;;;;;1.33;0.90;;;;;;;15.47;76.39;96922.13;5107537;28;20030;-76
2021/06/06 03:26:14;;;;;;;0.73;0.73;;;;;;;15.45;76.46;96916.25;5116436;28;20073;-75
2021/06/06 03:28:42;;;;;;;0.75;0.75;;;;;;;15.44;76.62;96919.97;5116939;28;20043;-76
2021/06/06 03:31:17;;;;;;;0.70;0.70;;;;;;;15.43;76.76;96923.63;5116810;28;20504;-76
2021/06/06 03:33:44;;;;;;;0.90;0.90;;;;;;;15.45;76.84;96918.09;5116996;28;20042;-76
2021/06/06 03:36:12;;;;;;;0.60;0.60;;;;;;;15.47;76.86;96916.03;5116634;28;20059;-77
2021/06/06 03:38:38;;;;;;;1.05;0.80;;;;;;;15.43;76.74;96916.53;5116876;28;20050;-76
2021/06/06 03:41:06;;;;;;;0.77;0.75;;;;;;;15.45;77.08;96910.19;5116673;28;20042;-76
2021/06/06 03:43:33;;;;;;;0.85;0.85;;;;;;;15.45;77.02;96910.19;5116774;27;20395;-76
2021/06/06 03:45:59;;;;;;;0.80;0.80;;;;;;;15.42;77.03;96916.75;5117227;28;20395;-76
2021/06/06 03:48:26;;;;;;;0.80;0.80;;;;;;;15.38;77.02;96915.63;5116061;28;20040;-76
2021/06/06 03:50:53;;;;;;;0.70;0.70;;;;;;;15.35;77.25;96916.91;5116634;28;20035;-76
2021/06/06 03:53:22;;;;;;;0.70;0.70;;;;;;;15.36;77.40;96909.75;5116248;27;20043;-76
2021/06/06 03:55:48;;;;;;;0.73;0.63;;;;;;;15.38;77.50;96908.47;5116779;28;20028;-76
2021/06/06 03:58:18;;;;;;;0.70;0.70;;;;;;;15.38;77.59;96905.03;5115834;27;20467;-76
2021/06/06 04:00:47;;;;;;;0.60;0.60;;;;;;;15.39;77.49;96911.91;5116445;28;20036;-76
2021/06/06 04:03:16;;;;;;;0.80;0.80;;;;;;;15.41;77.50;96910.66;5116466;28;20028;-76
2021/06/06 04:05:42;;;;;;;0.47;0.47;;;;;;;15.43;77.43;96911.22;5116457;27;20028;-76
2021/06/06 04:08:10;;;;;;;0.60;0.60;;;;;;;15.45;77.57;96905.69;5116639;28;20043;-76
2021/06/06 04:10:37;;;;;;;0.60;0.60;;;;;;;15.46;77.51;96907.31;5116175;27;20040;-76
2021/06/06 04:13:04;;;;;;;0.50;0.50;;;;;;;15.47;77.48;96906.25;5115797;27;20053;-76
2021/06/06 04:15:31;;;;;;;0.93;0.75;;;;;;;15.46;77.44;96904.66;5116386;28;20039;-76
2021/06/06 04:18:07;;;;;;;0.60;0.60;;;;;;;15.41;77.08;96909.84;5106770;28;20058;-76
2021/06/06 04:20:33;;;;;;;0.50;0.50;;;;;;;15.40;77.46;96903.75;5116030;28;20039;-76
2021/06/06 04:23:00;;;;;;;0.73;0.73;;;;;;;15.39;77.48;96902.16;5115922;28;20047;-73
2021/06/06 04:25:27;;;;;;;0.40;0.40;;;;;;;15.36;77.51;96900.00;5116116;28;20040;-73
2021/06/06 04:27:53;;;;;;;0.60;0.60;;;;;;;15.37;77.60;96906.06;5115490;28;20051;-73
2021/06/06 04:30:19;;;;;;;0.40;0.40;;;;;;;15.37;77.64;96898.97;5115472;28;20048;-73
2021/06/06 04:32:45;;;;;;;0.50;0.50;;;;;;;15.36;77.50;96907.13;5115084;28;20056;-76
2021/06/06 04:35:12;;;;;;;0.43;0.43;;;;;;;15.37;77.60;96914.00;5115451;28;20062;-76
2021/06/06 04:37:38;;;;;;;0.63;0.60;;;;;;;15.39;77.66;96911.91;5115812;28;20051;-76
2021/06/06 04:40:05;;;;;;;0.50;0.50;;;;;;;15.38;77.50;96903.19;5115620;28;20035;-76
2021/06/06 04:42:31;;;;;;;0.45;0.45;;;;;;;15.34;77.56;96906.56;5114560;28;20054;-76
2021/06/06 04:44:57;;;;;;;0.50;0.50;;;;;;;15.35;77.73;96913.44;5115545;28;20040;-77
2021/06/06 04:47:24;;;;;;;0.60;0.60;;;;;;;15.34;77.82;96907.34;5115503;28;20047;-76
2021/06/06 04:49:50;;;;;;;0.50;0.50;;;;;;;15.35;77.84;96901.03;5115497;28;20031;-76
2021/06/06 04:52:18;;;;;;;0.40;0.40;;;;;;;15.36;77.93;96902.63;5114974;28;20039;-76
2021/06/06 04:54:45;;;;;;;0.55;0.47;;;;;;;15.36;77.93;96900.00;5115658;28;20526;-76
2021/06/06 04:57:11;;;;;;;0.50;0.50;;;;;;;15.31;77.86;96905.19;5115370;28;20491;-76
2021/06/06 04:59:38;;;;;;;0.50;0.50;;;;;;;15.29;78.08;96906.47;5114140;28;20399;-76
2021/06/06 05:02:09;;;;;;;0.50;0.50;;;;;;;15.31;78.14;96907.03;5115085;28;20043;-76
2021/06/06 05:04:37;;;;;;;0.55;0.55;;;;;;;15.35;78.26;96908.16;5115257;28;20379;-76
2021/06/06 05:07:04;;;;;;;0.28;0.28;;;;;;;15.34;78.04;96903.91;5113906;28;20035;-76
2021/06/06 05:09:30;;;;;;;0.25;0.25;;;;;;;15.31;78.22;96905.19;5114757;28;20035;-77
2021/06/06 05:11:56;;;;;;;0.30;0.30;;;;;;;15.24;78.03;96896.59;5114268;28;20035;-76
2021/06/06 05:14:22;;;;;;;0.20;0.20;;;;;;;15.16;78.07;96905.72;5114287;28;20044;-76
2021/06/06 05:16:49;;;;;;;0.30;0.20;;;;;;;15.13;78.47;96908.00;5114917;28;20040;-76
2021/06/06 05:19:15;;;;;;;0.20;0.20;;;;;;;15.11;78.56;96899.53;5114540;27;20058;-76
2021/06/06 05:21:41;;;;;;;0.30;0.30;;;;;;;15.12;78.92;96904.59;5114968;28;20036;-76
2021/06/06 05:24:07;;;;;;;0.30;0.30;;;;;;;15.17;79.08;96909.16;5114976;28;20058;-76
2021/06/06 05:26:35;;;;;;;0.60;0.22;;;;;;;15.18;79.32;96901.00;5114818;28;20055;-76
2021/06/06 05:29:01;;;;;;;0.25;0.25;;;;;;;15.19;79.42;96899.16;5114511;28;20051;-76
2021/06/06 05:31:27;;;;;;;0.22;0.22;;;;;;;15.17;79.51;96895.94;5114920;28;20035;-76
2021/06/06 05:33:53;;;;;;;1.25;0.17;;;;;;;15.11;79.56;96897.69;5114683;28;20406;-76
2021/06/06 05:36:20;;;;;;;0.20;0.20;;;;;;;15.08;79.64;96903.44;5114499;28;20056;-76
2021/06/06 05:38:46;;;;;;;0.10;0.10;;;;;;;15.08;79.89;96905.28;5098494;28;20054;-76
2021/06/06 05:41:12;;;;;;;0.10;0.10;;;;;;;15.10;80.12;96908.47;5114450;28;20036;-75
2021/06/06 05:43:38;;;;;;;0.28;0.28;;;;;;;15.13;80.34;96914.09;5114512;28;20039;-76
2021/06/06 05:46:07;;;;;;;0.30;0.20;;;;;;;15.19;80.41;96913.16;5114248;28;20043;-76
2021/06/06 05:48:33;;;;;;;0.20;0.20;;;;;;;15.18;80.26;96911.56;5114757;28;20392;-76
2021/06/06 05:51:02;;;;;;;0.28;0.28;;;;;;;15.22;80.26;96911.88;5113122;28;20391;-76
2021/06/06 05:53:29;;;;;;;0.40;0.40;;;;;;;15.22;80.14;96909.22;5114676;28;20472;-75
2021/06/06 05:55:56;;;;;;;0.32;0.32;;;;;;;15.19;80.26;96904.44;5113628;28;20445;-76
2021/06/06 05:58:23;;;;;;;0.30;0.30;;;;;;;15.19;80.48;96907.06;5114006;28;20055;-76
2021/06/06 06:00:49;;;;;;;0.65;0.40;;;;;;;15.21;80.52;96910.28;5114396;28;20039;-76
2021/06/06 06:03:16;;;;;;;1.27;0.50;;;;;;;15.25;80.57;96900.06;5113586;28;20063;-76
2021/06/06 06:05:43;;;;;;;1.67;0.55;;;;;;;15.22;80.47;96907.41;5114017;28;20031;-77
2021/06/06 06:08:31;;;;;;;0.40;0.40;;;;;;;15.26;80.92;96902.44;5113875;28;20047;-76
2021/06/06 06:10:58;;;;;;;2.20;0.70;;;;;;;15.28;80.65;96910.13;5113892;28;20036;-76
2021/06/06 06:13:28;;;;;;;1.00;0.90;;;;;;;15.26;80.80;96905.09;5113607;28;20047;-76
2021/06/06 06:15:55;;;;;;;1.90;1.27;;;;;;;15.26;80.69;96901.66;5113858;28;20046;-73
2021/06/06 06:18:25;;;;;;;1.63;1.05;;;;;;;15.24;80.91;96901.88;5113801;28;20040;-73
2021/06/06 06:20:51;;;;;;;1.10;1.00;;;;;;;15.25;81.06;96911.41;5113601;28;20043;-73
2021/06/06 06:23:18;;;;;;;1.73;1.38;;;;;;;15.26;80.98;96917.50;5113426;28;20051;-74
2021/06/06 06:25:45;;;;;;;1.83;1.40;;;;;;;15.14;80.97;96915.72;5113897;28;20372;-73
2021/06/06 06:28:11;;;;;;;1.45;1.35;;;;;;;15.10;81.26;96914.56;5113672;28;20036;-74
2021/06/06 06:30:38;;;;;;;1.85;1.70;;;;;;;15.12;81.47;96915.16;5113708;28;20046;-73
2021/06/06 06:33:07;;;;;;;1.70;1.25;;;;;;;15.10;81.68;96913.75;5113828;28;20482;-73
2021/06/06 06:35:35;;;;;;;1.30;1.20;;;;;;;15.11;81.90;96923.28;5111962;28;20059;-74
2021/06/06 06:38:04;;;;;;;1.73;1.60;;;;;;;15.14;82.18;96925.47;5113678;28;20036;-73
2021/06/06 06:40:32;;;;;;;2.40;1.65;;;;;;;15.13;81.91;96926.50;5113693;28;20387;-74
2021/06/06 06:42:58;;;;;;;2.70;1.67;;;;;;;15.11;82.10;96918.00;5114005;28;20039;-73
2021/06/06 06:45:28;;;;;;;2.42;1.80;;;;;;;15.09;82.29;96918.25;5113588;28;20036;-74
2021/06/06 06:48:02;;;;;;;1.60;1.50;;;;;;;15.10;82.87;96913.75;5113438;28;20032;-74
2021/06/06 06:50:30;;;;;;;2.92;1.98;;;;;;;15.14;82.71;96922.81;5113530;28;20036;-73
2021/06/06 06:53:00;;;;;;;1.83;1.67;;;;;;;15.16;82.81;96921.56;5113685;28;20026;-74
2021/06/06 06:55:27;;;;;;;2.60;2.08;;;;;;;15.19;82.86;96923.72;5113613;28;20391;-73
2021/06/06 06:57:56;;;;;;;2.20;2.10;;;;;;;15.21;82.95;96924.28;5113660;28;20043;-73
2021/06/06 07:00:31;;;;;;;2.33;2.17;;;;;;;15.24;83.35;96917.72;5113301;28;20032;-73
2021/06/06 07:02:58;;;;;;;4.10;2.90;;;;;;;15.26;83.13;96925.44;5113341;28;20046;-74
2021/06/06 07:05:24;;;;;;;3.08;2.47;;;;;;;15.27;83.22;96925.19;5113279;28;20038;-73
2021/06/06 07:07:52;;;;;;;2.55;2.35;;;;;;;15.29;83.08;96914.41;5113822;28;20043;-73
2021/06/06 07:10:24;;;;;;;2.72;2.47;;;;;;;15.30;83.58;96923.91;5112414;28;20058;-73
2021/06/06 07:12:51;;;;;;;2.80;2.30;;;;;;;15.32;83.32;96930.56;5113598;28;20028;-73
2021/06/06 07:15:19;;;;;;;3.72;2.70;;;;;;;15.33;83.79;96934.81;5112892;28;20471;-73
2021/06/06 07:17:45;;;;;;;3.17;2.22;;;;;;;15.37;83.82;96935.97;5113317;28;20036;-73
2021/06/06 07:20:15;;;;;;;2.83;2.60;;;;;;;15.37;84.06;96929.84;5113248;28;20040;-73
2021/06/06 07:22:41;;;;;;;2.65;2.45;;;;;;;15.36;83.93;96926.41;5111676;28;20028;-73
2021/06/06 07:25:11;;;;;;;2.53;2.35;;;;;;;15.38;84.30;96928.84;5113529;28;20039;-73
2021/06/06 07:27:40;;;;;;;2.88;2.67;;;;;;;15.37;84.15;96930.69;5113108;28;20036;-73
2021/06/06 07:30:12;;;;;;;2.63;2.45;;;;;;;15.41;84.79;96933.63;5113633;28;20028;-73
2021/06/06 07:32:39;;;;;;;2.67;2.47;;;;;;;15.46;84.83;96933.75;5113278;28;20028;-72
2021/06/06 07:35:07;;;;;;;3.72;3.42;;;;;;;15.51;84.91;96933.03;5116347;28;20051;-71
2021/06/06 07:37:33;;;;;;;3.72;3.15;;;;;;;15.54;85.04;96933.34;5116731;28;20055;-71
2021/06/06 07:40:00;;;;;;;3.88;3.58;;;;;;;15.57;85.38;96924.94;5116361;28;20059;-71
2021/06/06 07:42:27;;;;;;;3.30;3.00;;;;;;;15.58;85.53;96921.28;5116599;28;20027;-72
2021/06/06 07:44:53;;;;;;;3.17;2.88;;;;;;;15.59;85.63;96919.41;5116909;28;20109;-72
2021/06/06 07:47:19;;;;;;;3.38;3.10;;;;;;;15.55;85.61;96923.59;5116418;28;20054;-72
2021/06/06 07:49:45;;;;;;;3.67;3.38;;;;;;;15.50;86.14;96924.28;5116531;28;20050;-72
2021/06/06 07:52:12;;;;;;;3.80;3.50;;;;;;;15.50;86.36;96923.50;5116617;27;20419;-72
2021/06/06 07:54:38;;;;;;;3.28;3.08;;;;;;;15.51;87.32;96925.09;5115463;28;20039;-72
2021/06/06 07:57:05;;;;;;;3.55;3.35;;;;;;;15.57;87.51;96930.22;5116475;28;20036;-72
2021/06/06 07:59:33;;;;;;;3.72;3.42;;;;;;;15.63;87.58;96929.28;5116396;28;20027;-72
2021/06/06 08:02:00;;;;;;;3.63;3.40;;;;;;;15.66;87.57;96930.63;5116233;28;20043;-72
2021/06/06 08:04:26;;;;;;;3.67;3.38;;;;;;;15.71;87.91;96932.59;5116124;28;20040;-72
2021/06/06 08:06:53;;;;;;;4.00;3.70;;;;;;;15.71;87.34;96932.59;5115974;28;20043;-72
2021/06/06 08:09:19;;;;;;;4.55;4.15;;;;;;;15.69;87.24;96935.47;5116004;28;20032;-73
2021/06/06 08:11:45;;;;;;;3.83;3.53;;;;;;;15.66;87.76;96932.50;5116087;28;20035;-72
2021/06/06 08:14:12;;;;;;;4.72;4.32;;;;;;;15.64;87.72;96938.00;5116090;28;20044;-72
2021/06/06 08:16:38;;;;;;;4.80;4.38;;;;;;;15.61;87.68;96935.84;5115900;28;20039;-72
2021/06/06 08:19:05;;;;;;;4.80;4.40;;;;;;;15.56;87.83;96935.75;5116602;28;20055;-72
2021/06/06 08:21:41;;;;;;;4.03;3.72;;;;;;;15.52;88.01;96940.72;5115770;28;20031;-72
2021/06/06 08:24:08;;;;;;;4.03;3.72;;;;;;;15.50;88.14;96934.06;5115806;28;20035;-72
2021/06/06 08:26:35;;;;;;;4.32;3.97;;;;;;;15.45;88.08;96937.41;5115705;28;20031;-72
2021/06/06 08:29:03;;;;;;;4.32;4.03;;;;;;;15.42;88.22;96938.69;5115526;28;20045;-72
2021/06/06 08:31:33;;;;;;;4.60;4.20;;;;;;;15.43;88.63;96932.38;5115684;28;20463;-72
2021/06/06 08:33:59;;;;;;;4.78;4.18;;;;;;;15.45;88.76;96939.25;5115872;28;20028;-72
2021/06/06 08:36:29;;;;;;;4.60;4.20;;;;;;;15.44;88.62;96930.53;5116048;28;20059;-72
2021/06/06 08:38:57;;;;;;;4.88;4.10;;;;;;;15.39;88.40;96938.34;5115386;28;20043;-72
2021/06/06 08:41:26;;;;;;;4.05;3.65;;;;;;;15.38;88.57;96926.19;5115164;28;20047;-72
2021/06/06 08:44:05;;;;;;;3.90;3.60;;;;;;;15.38;89.28;96926.97;5115058;28;20039;-72
2021/06/06 08:46:42;;;;;;;3.67;3.30;;;;;;;15.38;88.81;96934.91;5115791;28;20387;-72
2021/06/06 08:49:08;;;;;;;3.60;3.30;;;;;;;15.39;88.91;96930.41;5115285;28;20467;-72
2021/06/06 08:51:51;;;;;;;4.15;3.75;;;;;;;15.46;89.15;96925.81;5115727;28;20028;-72
2021/06/06 08:54:39;;;;;;;3.53;3.22;;;;;;;15.51;88.95;96933.03;5107749;28;20038;-72
2021/06/06 08:57:25;;;;;;;3.97;3.60;;;;;;;15.57;89.36;96924.16;5101172;28;20038;-72
2021/06/06 08:59:56;;;;;;;3.42;3.13;;;;;;;15.61;88.77;96933.19;5115515;28;20043;-72
2021/06/06 09:02:46;;;;;;;5.55;3.50;;;;;;;15.61;88.75;96934.00;5115462;28;20468;-72
2021/06/06 09:05:22;;;;;;;3.92;3.55;;;;;;;15.61;88.61;96935.84;5114664;28;20395;-75
2021/06/06 09:07:51;;;;;;;4.43;4.03;;;;;;;15.63;88.89;96934.56;5115244;28;20039;-75
2021/06/06 09:10:28;;;;;;;4.32;3.92;;;;;;;15.71;88.62;96933.38;5114850;28;20038;-75
2021/06/06 09:12:55;;;;;;;4.18;3.83;;;;;;;15.80;88.76;96936.47;5115644;28;20039;-75
2021/06/06 09:15:27;;;;;;;5.53;5.10;;;;;;;15.88;88.36;96932.63;5114343;28;20062;-75
2021/06/06 09:17:59;;;;;;;4.93;4.47;;;;;;;15.90;87.99;96927.91;5114923;28;20046;-75
2021/06/06 09:20:40;;;;;;;5.25;4.75;;;;;;;15.89;87.79;96937.66;5114848;28;20024;-75
2021/06/06 09:23:19;;;;;;;4.88;4.47;;;;;;;15.87;87.53;96941.59;5103674;28;20035;-75
2021/06/06 09:25:59;;;;;;;4.28;3.88;;;;;;;15.88;88.02;96940.56;5114776;28;20486;-75
2021/06/06 09:28:29;;;;;;;5.53;5.03;;;;;;;15.95;88.05;96939.34;5114824;28;20035;-75
2021/06/06 09:31:16;;;;;;;5.13;4.63;;;;;;;15.97;87.19;96945.22;5114668;28;20032;-75
2021/06/06 09:33:49;;;;;;;4.90;4.50;;;;;;;15.95;87.41;96951.78;5114190;28;20039;-75
2021/06/06 09:36:15;;;;;;;4.57;4.18;;;;;;;15.90;87.10;96949.88;5114086;28;20043;-75
2021/06/06 09:38:42;;;;;;;4.28;3.88;;;;;;;15.89;87.45;96947.44;5114683;28;20039;-75
2021/06/06 09:41:34;;;;;;;3.85;3.53;;;;;;;15.85;86.77;96951.63;5114381;28;20050;-75
2021/06/06 09:44:06;;;;;;;4.65;4.22;;;;;;;15.83;87.33;96952.66;5114618;28;20032;-75
2021/06/06 09:46:49;;;;;;;5.10;4.50;;;;;;;15.82;87.11;96950.25;5114602;28;20437;-75
2021/06/06 09:49:31;;;;;;;4.35;4.00;;;;;;;15.80;87.14;96947.03;5105914;28;20042;-75
2021/06/06 09:52:41;;;;;;;5.25;4.75;;;;;;;15.80;86.60;96945.19;5114785;28;20513;-75
2021/06/06 09:55:29;;;;;;;5.05;4.65;;;;;;;15.81;86.75;96946.00;5105832;28;20063;-75
2021/06/06 09:58:13;;;;;;;5.40;4.90;;;;;;;15.81;87.22;96941.53;5104156;28;20039;-75
2021/06/06 10:00:44;;;;;;;5.60;5.15;;;;;;;15.80;86.81;96949.69;5114099;28;20032;-75
2021/06/06 10:03:28;;;;;;;5.03;4.63;;;;;;;15.79;87.15;96951.53;5114443;28;20475;-75
2021/06/06 10:06:11;;;;;;;5.28;4.78;;;;;;;15.80;87.42;96950.50;5114470;28;20040;-73
2021/06/06 10:08:38;;;;;;;6.13;5.55;;;;;;;15.81;86.99;96957.41;5114262;28;20051;-72
2021/06/06 10:11:14;;;;;;;5.63;5.13;;;;;;;15.82;86.58;96956.34;5113987;28;20043;-73
2021/06/06 10:13:46;;;;;;;5.03;4.53;;;;;;;15.81;86.84;96951.28;5113516;28;20043;-72
2021/06/06 10:16:19;;;;;;;4.82;4.43;;;;;;;15.82;86.67;96960.84;5114055;28;20027;-73
2021/06/06 10:18:52;;;;;;;4.55;4.13;;;;;;;15.94;86.42;96952.84;5113671;28;20467;-73
2021/06/06 10:21:26;;;;;;;4.00;3.70;;;;;;;16.03;86.11;96957.47;5114838;28;20028;-72
2021/06/06 10:23:54;;;;;;;4.22;3.92;;;;;;;16.14;86.07;96970.88;5114240;28;20360;-73
2021/06/06 10:26:37;;;;;;;3.60;3.03;;;;;;;16.16;85.29;96956.34;5113404;28;20459;-73
2021/06/06 10:29:08;;;;;;;3.00;2.80;;;;;;;16.17;84.70;96963.28;5113598;28;20027;-72
2021/06/06 10:31:45;;;;;;;2.75;2.55;;;;;;;16.12;84.53;96963.16;5114021;28;20469;-73
2021/06/06 10:34:21;;;;;;;2.42;2.33;;;;;;;16.12;84.46;96967.66;5113465;28;20478;-72
2021/06/06 10:36:48;;;;;;;3.47;3.00;;;;;;;16.13;85.07;96970.09;5113909;28;20055;-73
2021/06/06 10:39:22;;;;;;;3.05;2.85;;;;;;;16.14;84.81;96970.88;5113364;28;20039;-72
2021/06/06 10:42:09;;;;;;;3.38;3.17;;;;;;;16.12;84.61;96973.75;5114091;28;20034;-73
2021/06/06 10:45:10;;;;;;;3.70;3.50;;;;;;;16.08;84.60;96969.19;5113451;28;20047;-72
2021/06/06 10:47:51;;;;;;;2.80;2.60;;;;;;;16.08;84.89;96963.91;5102955;28;20039;-72
2021/06/06 10:50:30;;;;;;;2.97;2.78;;;;;;;16.13;84.57;96961.34;5099542;28;20057;-73
2021/06/06 10:53:27;;;;;;;3.17;2.97;;;;;;;16.16;84.55;96964.28;5113742;28;20035;-73
2021/06/06 10:56:05;;;;;;;3.33;3.03;;;;;;;16.12;84.48;96960.53;5101109;28;20040;-73
2021/06/06 10:58:54;;;;;;;3.42;3.13;;;;;;;16.09;84.37;96954.94;5100990;28;20031;-73
2021/06/06 11:01:44;;;;;;;3.10;2.90;;;;;;;16.09;84.70;96950.44;5099508;28;20042;-73
2021/06/06 11:04:10;;;;;;;3.45;3.25;;;;;;;16.10;84.92;96951.22;5113117;28;20093;-72
2021/06/06 11:06:37;;;;;;;3.15;2.95;;;;;;;16.12;84.96;96957.88;5112485;28;20054;-73
2021/06/06 11:09:18;;;;;;;2.97;2.78;;;;;;;16.19;84.66;96957.72;5114099;28;20054;-73
2021/06/06 11:12:05;;;;;;;2.58;2.47;;;;;;;16.22;84.01;96946.66;5117779;27;20024;-73
2021/06/06 11:14:46;;;;;;;2.90;2.70;;;;;;;16.34;83.47;96938.66;5117425;27;20035;-72
2021/06/06 11:17:33;;;;;;;2.70;2.50;;;;;;;16.49;83.68;96938.84;5117507;28;20038;-73
2021/06/06 11:20:11;;;;;;;2.45;2.30;;;;;;;16.66;83.68;96943.31;5117522;28;20473;-73
2021/06/06 11:22:41;;;;;;;3.22;3.03;;;;;;;16.75;82.96;96940.00;5103630;28;20036;-73
2021/06/06 11:25:27;;;;;;;3.53;3.33;;;;;;;16.80;81.72;96934.00;5116997;28;20036;-73
2021/06/06 11:27:59;;;;;;;4.13;3.83;;;;;;;16.80;82.43;96929.50;5116428;28;20027;-73
2021/06/06 11:30:27;;;;;;;4.22;3.92;;;;;;;16.81;82.50;96931.09;5101482;28;20039;-73
2021/06/06 11:33:00;;;;;;;4.82;4.43;;;;;;;16.92;82.19;96931.22;5117054;28;20040;-73
2021/06/06 11:35:48;;;;;;;5.75;5.25;;;;;;;17.01;81.70;96914.66;5108595;28;20071;-73
2021/06/06 11:38:36;;;;;;;5.38;4.97;;;;;;;17.10;80.96;96930.13;5103930;28;20047;-73
2021/06/06 11:41:07;;;;;;;4.88;4.47;;;;;;;17.07;81.40;96920.81;5116781;28;20047;-73
2021/06/06 11:43:40;;;;;;;5.32;4.90;;;;;;;17.04;81.25;96923.97;5116899;28;20031;-73
2021/06/06 11:46:30;;;;;;;4.63;4.28;;;;;;;16.96;80.90;96925.19;5116907;28;20035;-73
2021/06/06 11:49:25;;;;;;;4.93;4.53;;;;;;;16.92;80.89;96931.22;5116583;28;20035;-73
2021/06/06 11:51:53;;;;;;;4.95;4.55;;;;;;;16.93;81.45;96932.84;5116380;28;20048;-73
2021/06/06 11:54:34;;;;;;;4.95;4.65;;;;;;;16.94;80.81;96923.84;5116382;28;20482;-75